Time;durP1;ratioP1;P1;durP2;ratioP2;P2;SDS_P1;SDS_P2;PMS_P1;PMS_P2;Temp;Humidity;BMP_temperature;BMP_pressure;BME280_temperature;BME280_humidity;BME280_pressure;Samples;Min_cycle;Max_cycle;Signal;HPM_P1;HPM_P2
2023/08/04 00:00:29;;;;;;;13.38;12.18;;;;;;;;;;5024198;28;20334;-62
2023/08/04 00:02:55;;;;;;;12.48;11.40;;;;;;;;;;5023652;28;20681;-62
2023/08/04 00:05:23;;;;;;;13.55;12.55;;;;;;;;;;5023715;28;20235;-63
2023/08/04 00:07:49;;;;;;;13.02;11.82;;;;;;;;;;5023364;28;20227;-63
2023/08/04 00:10:16;;;;;;;14.88;13.57;;;;;;;;;;5024940;28;20594;-63
2023/08/04 00:12:42;;;;;;;13.05;11.88;;;;;;;;;;5023214;28;20222;-64
2023/08/04 00:15:09;;;;;;;14.18;12.73;;;;;;;;;;5022141;28;20227;-61
2023/08/04 00:17:38;;;;;;;14.02;12.73;;;;;;;;;;5023534;28;20231;-63
2023/08/04 00:20:05;;;;;;;14.18;12.57;;;;;;;;;;5023518;28;20728;-64
2023/08/04 00:22:32;;;;;;;14.15;12.32;;;;;;;;;;5023221;28;20219;-63
2023/08/04 00:24:59;;;;;;;13.95;12.60;;;;;;;;;;5022721;28;20273;-64
2023/08/04 00:27:25;;;;;;;13.85;12.70;;;;;;;;;;5023380;28;20299;-65
2023/08/04 00:29:52;;;;;;;14.30;13.02;;;;;;;;;;5022540;28;20204;-66
2023/08/04 00:32:18;;;;;;;14.88;13.50;;;;;;;;;;5023157;28;20751;-65
2023/08/04 00:34:45;;;;;;;13.00;12.10;;;;;;;;;;5022567;28;21493;-64
2023/08/04 00:37:11;;;;;;;15.60;12.75;;;;;;;;;;5023845;28;20742;-64
2023/08/04 00:39:39;;;;;;;12.88;11.73;;;;;;;;;;5024548;28;20634;-64
2023/08/04 00:42:06;;;;;;;14.57;13.18;;;;;;;;;;5025452;28;20204;-64
2023/08/04 00:44:32;;;;;;;14.02;12.68;;;;;;;;;;5025487;28;20199;-64
2023/08/04 00:46:59;;;;;;;13.25;12.18;;;;;;;;;;5025551;28;20272;-64
2023/08/04 00:49:25;;;;;;;13.88;12.88;;;;;;;;;;5024958;28;20203;-63
2023/08/04 00:51:52;;;;;;;13.32;12.05;;;;;;;;;;5025400;28;20490;-64
2023/08/04 00:54:18;;;;;;;13.82;12.25;;;;;;;;;;5025723;28;20211;-65
2023/08/04 00:56:47;;;;;;;12.88;11.85;;;;;;;;;;5025274;28;20199;-64
2023/08/04 00:59:13;;;;;;;13.40;12.18;;;;;;;;;;5024791;28;20261;-64
2023/08/04 01:01:40;;;;;;;13.25;12.35;;;;;;;;;;5025126;28;20212;-64
2023/08/04 01:04:06;;;;;;;13.82;12.43;;;;;;;;;;5025171;28;20328;-65
2023/08/04 01:06:50;;;;;;;13.27;12.07;;;;;;;;;;5025350;28;20207;-64
2023/08/04 01:09:22;;;;;;;13.60;12.20;;;;;;;;;;5024756;28;20195;-63
2023/08/04 01:11:52;;;;;;;13.35;12.27;;;;;;;;;;5023047;28;20207;-64
2023/08/04 01:14:19;;;;;;;13.35;12.13;;;;;;;;;;5024944;28;20251;-64
2023/08/04 01:16:46;;;;;;;12.73;11.85;;;;;;;;;;5025839;28;20261;-64
2023/08/04 01:19:13;;;;;;;12.38;11.40;;;;;;;;;;5026850;28;20207;-64
2023/08/04 01:21:41;;;;;;;13.25;12.15;;;;;;;;;;5026344;28;20192;-64
2023/08/04 01:24:07;;;;;;;12.68;11.77;;;;;;;;;;5025913;28;20686;-65
2023/08/04 01:26:35;;;;;;;16.42;12.10;;;;;;;;;;5026116;28;20200;-64
2023/08/04 01:29:02;;;;;;;12.07;11.18;;;;;;;;;;5026659;28;20584;-64
2023/08/04 01:31:28;;;;;;;13.18;12.25;;;;;;;;;;5025800;28;20204;-64
2023/08/04 01:33:55;;;;;;;13.30;12.32;;;;;;;;;;5026266;28;20215;-64
2023/08/04 01:36:21;;;;;;;13.52;12.35;;;;;;;;;;5024556;28;20243;-64
2023/08/04 01:38:49;;;;;;;14.07;13.02;;;;;;;;;;5025410;28;20203;-64
2023/08/04 01:41:16;;;;;;;13.88;12.77;;;;;;;;;;5025614;28;20199;-64
2023/08/04 01:43:42;;;;;;;14.10;11.88;;;;;;;;;;5025663;28;20274;-63
2023/08/04 01:46:09;;;;;;;13.50;12.52;;;;;;;;;;5025809;28;20207;-63
2023/08/04 01:48:35;;;;;;;13.65;12.75;;;;;;;;;;5023847;28;20745;-63
2023/08/04 01:51:01;;;;;;;12.68;11.52;;;;;;;;;;5023774;28;20203;-64
2023/08/04 01:53:28;;;;;;;15.10;13.55;;;;;;;;;;5025140;28;20926;-63
2023/08/04 01:55:56;;;;;;;14.13;12.88;;;;;;;;;;5025255;28;20262;-64
2023/08/04 01:58:22;;;;;;;14.55;13.32;;;;;;;;;;5025187;28;20247;-63
2023/08/04 02:00:49;;;;;;;14.65;13.48;;;;;;;;;;5025645;28;20591;-63
2023/08/04 02:03:15;;;;;;;14.55;13.32;;;;;;;;;;5024833;28;20233;-64
2023/08/04 02:05:45;;;;;;;18.08;16.50;;;;;;;;;;5024776;28;20673;-64
2023/08/04 02:08:12;;;;;;;19.15;17.42;;;;;;;;;;5024825;28;20685;-64
2023/08/04 02:10:38;;;;;;;18.58;17.00;;;;;;;;;;5025586;28;20203;-64
2023/08/04 02:13:06;;;;;;;17.10;15.80;;;;;;;;;;5024698;28;20223;-64
2023/08/04 02:15:32;;;;;;;15.15;13.68;;;;;;;;;;5025233;28;20633;-63
2023/08/04 02:17:59;;;;;;;14.48;13.10;;;;;;;;;;5023339;28;20341;-64
2023/08/04 02:20:26;;;;;;;15.30;14.02;;;;;;;;;;5023716;28;20212;-63
2023/08/04 02:22:52;;;;;;;31.83;28.77;;;;;;;;;;5025933;28;20207;-64
2023/08/04 02:25:18;;;;;;;28.08;25.45;;;;;;;;;;5024334;28;20755;-64
2023/08/04 02:27:45;;;;;;;16.83;15.15;;;;;;;;;;5025991;28;20269;-64
2023/08/04 02:30:13;;;;;;;16.30;14.85;;;;;;;;;;5019717;28;20628;-64
2023/08/04 02:32:40;;;;;;;15.43;14.20;;;;;;;;;;5010352;28;20197;-64
2023/08/04 02:35:07;;;;;;;14.57;13.48;;;;;;;;;;5016387;28;20204;-64
2023/08/04 02:37:33;;;;;;;16.13;14.55;;;;;;;;;;5011766;28;20304;-64
2023/08/04 02:39:59;;;;;;;16.25;14.95;;;;;;;;;;5013791;28;20273;-64
2023/08/04 02:42:26;;;;;;;15.90;14.38;;;;;;;;;;5007558;28;20759;-63
2023/08/04 02:44:53;;;;;;;17.23;14.90;;;;;;;;;;5010203;28;20220;-64
2023/08/04 02:47:21;;;;;;;16.08;14.77;;;;;;;;;;5008955;28;20300;-65
2023/08/04 02:49:47;;;;;;;16.60;15.02;;;;;;;;;;5014489;28;20314;-63
2023/08/04 02:52:16;;;;;;;14.55;13.32;;;;;;;;;;5023355;28;20618;-63
2023/08/04 02:54:42;;;;;;;17.00;15.00;;;;;;;;;;5023266;28;20220;-64
2023/08/04 02:57:09;;;;;;;16.95;15.25;;;;;;;;;;5023034;28;20235;-64
2023/08/04 02:59:36;;;;;;;15.73;14.30;;;;;;;;;;5017176;28;20617;-63
2023/08/04 03:02:02;;;;;;;15.20;13.85;;;;;;;;;;5014547;28;20662;-62
2023/08/04 03:04:30;;;;;;;15.70;14.55;;;;;;;;;;5011708;28;20326;-64
2023/08/04 03:06:57;;;;;;;16.08;14.65;;;;;;;;;;5025261;28;20257;-64
2023/08/04 03:09:23;;;;;;;16.13;14.55;;;;;;;;;;5022866;28;20235;-64
2023/08/04 03:11:49;;;;;;;15.75;14.25;;;;;;;;;;5024773;28;20199;-64
2023/08/04 03:14:16;;;;;;;14.40;13.15;;;;;;;;;;5025767;28;20281;-64
2023/08/04 03:16:42;;;;;;;15.60;14.05;;;;;;;;;;5023021;28;20258;-63
2023/08/04 03:19:09;;;;;;;14.70;13.70;;;;;;;;;;5022577;28;20742;-63
2023/08/04 03:21:37;;;;;;;15.05;13.70;;;;;;;;;;5024463;28;20196;-63
2023/08/04 03:24:03;;;;;;;15.02;13.82;;;;;;;;;;5022990;28;20251;-62
2023/08/04 03:26:30;;;;;;;14.80;13.43;;;;;;;;;;5025131;28;20203;-63
2023/08/04 03:28:56;;;;;;;14.93;13.77;;;;;;;;;;5016529;28;20694;-63
2023/08/04 03:31:23;;;;;;;16.02;14.23;;;;;;;;;;5012850;28;20235;-63
2023/08/04 03:33:49;;;;;;;18.90;13.88;;;;;;;;;;5017395;28;20286;-63
2023/08/04 03:36:16;;;;;;;15.98;14.20;;;;;;;;;;5023383;28;20203;-63
2023/08/04 03:38:44;;;;;;;16.42;13.82;;;;;;;;;;5023122;28;20210;-63
2023/08/04 03:41:10;;;;;;;17.50;13.75;;;;;;;;;;5023161;28;20240;-63
2023/08/04 03:43:37;;;;;;;15.10;13.65;;;;;;;;;;5025204;28;20200;-63
2023/08/04 03:46:03;;;;;;;14.63;13.32;;;;;;;;;;5022477;28;20605;-64
2023/08/04 03:48:30;;;;;;;14.48;12.98;;;;;;;;;;5024343;28;20195;-64
2023/08/04 03:50:56;;;;;;;19.85;12.88;;;;;;;;;;5025135;28;20338;-63
2023/08/04 03:53:23;;;;;;;20.85;13.68;;;;;;;;;;5023705;28;20249;-63
2023/08/04 03:55:51;;;;;;;14.68;13.32;;;;;;;;;;5019140;28;20266;-63
2023/08/04 03:58:17;;;;;;;14.20;13.07;;;;;;;;;;5014666;28;20258;-63
2023/08/04 04:00:44;;;;;;;13.27;12.27;;;;;;;;;;5014513;28;20216;-62
2023/08/04 04:03:10;;;;;;;14.85;13.25;;;;;;;;;;5023206;28;20203;-62
2023/08/04 04:05:38;;;;;;;14.57;12.05;;;;;;;;;;5024351;28;20281;-63
2023/08/04 04:08:05;;;;;;;13.23;12.23;;;;;;;;;;5024140;28;20204;-62
2023/08/04 04:10:31;;;;;;;16.23;12.82;;;;;;;;;;5019198;28;20235;-63
2023/08/04 04:13:00;;;;;;;14.85;13.20;;;;;;;;;;5015875;28;20288;-64
2023/08/04 04:15:26;;;;;;;13.73;12.20;;;;;;;;;;5013523;28;20231;-63
2023/08/04 04:17:53;;;;;;;15.88;12.98;;;;;;;;;;5015644;28;20200;-64
2023/08/04 04:20:19;;;;;;;19.20;13.23;;;;;;;;;;5020469;28;20690;-62
2023/08/04 04:22:46;;;;;;;17.02;12.60;;;;;;;;;;5014608;28;20250;-63
2023/08/04 04:25:12;;;;;;;13.18;11.88;;;;;;;;;;5016223;28;20775;-63
2023/08/04 04:27:38;;;;;;;15.05;13.60;;;;;;;;;;5013606;28;20236;-64
2023/08/04 04:30:07;;;;;;;14.65;12.43;;;;;;;;;;5020989;28;20646;-62
2023/08/04 04:32:33;;;;;;;17.15;13.20;;;;;;;;;;5018130;28;20745;-63
2023/08/04 04:35:00;;;;;;;17.33;12.35;;;;;;;;;;5022457;28;20236;-62
2023/08/04 04:37:26;;;;;;;22.52;13.80;;;;;;;;;;5014686;28;20639;-64
2023/08/04 04:39:53;;;;;;;28.65;23.02;;;;;;;;;;5016754;28;20677;-64
2023/08/04 04:42:19;;;;;;;16.33;14.55;;;;;;;;;;5021270;28;20239;-64
2023/08/04 04:44:46;;;;;;;18.15;13.85;;;;;;;;;;5026428;28;20277;-64
2023/08/04 04:47:14;;;;;;;13.25;12.20;;;;;;;;;;5025650;28;20332;-63
2023/08/04 04:49:40;;;;;;;17.95;16.27;;;;;;;;;;5025097;28;20589;-64
2023/08/04 04:52:07;;;;;;;16.52;12.52;;;;;;;;;;5024548;28;20243;-64
2023/08/04 04:54:33;;;;;;;14.25;12.25;;;;;;;;;;5024983;28;20219;-63
2023/08/04 04:57:00;;;;;;;16.38;12.30;;;;;;;;;;5024296;28;20234;-65
2023/08/04 04:59:26;;;;;;;12.88;11.73;;;;;;;;;;5026009;28;20274;-64
2023/08/04 05:01:53;;;;;;;13.45;12.27;;;;;;;;;;5026219;28;20199;-65
2023/08/04 05:04:20;;;;;;;14.20;12.20;;;;;;;;;;5026136;28;20254;-63
2023/08/04 05:06:47;;;;;;;13.18;11.95;;;;;;;;;;5026434;28;20257;-64
2023/08/04 05:09:14;;;;;;;13.27;12.05;;;;;;;;;;5015351;28;20228;-64
2023/08/04 05:11:40;;;;;;;14.25;11.93;;;;;;;;;;5010911;28;20299;-65
2023/08/04 05:14:06;;;;;;;22.30;12.70;;;;;;;;;;5011744;28;20314;-65
2023/08/04 05:16:33;;;;;;;16.05;12.52;;;;;;;;;;5013551;28;20254;-65
2023/08/04 05:18:59;;;;;;;13.52;12.23;;;;;;;;;;5014267;28;20212;-64
2023/08/04 05:21:27;;;;;;;14.45;12.98;;;;;;;;;;5026706;28;20283;-65
2023/08/04 05:23:54;;;;;;;16.55;12.05;;;;;;;;;;5026789;28;20200;-64
2023/08/04 05:26:21;;;;;;;17.08;12.32;;;;;;;;;;5027715;28;20682;-64
2023/08/04 05:28:47;;;;;;;16.25;14.73;;;;;;;;;;5023831;28;20239;-65
2023/08/04 05:31:14;;;;;;;14.82;13.52;;;;;;;;;;5020659;28;20265;-65
2023/08/04 05:33:40;;;;;;;21.92;13.50;;;;;;;;;;5012654;28;20686;-64
2023/08/04 05:36:07;;;;;;;14.95;12.60;;;;;;;;;;5011508;28;20264;-65
2023/08/04 05:38:34;;;;;;;15.75;12.15;;;;;;;;;;5012556;28;20243;-64
2023/08/04 05:41:02;;;;;;;12.82;11.43;;;;;;;;;;5022707;28;20207;-65
2023/08/04 05:43:28;;;;;;;18.38;12.65;;;;;;;;;;5018959;28;20645;-65
2023/08/04 05:45:55;;;;;;;14.57;11.63;;;;;;;;;;5026342;28;20258;-65
2023/08/04 05:48:22;;;;;;;13.68;12.32;;;;;;;;;;5025458;28;20200;-65
2023/08/04 05:50:48;;;;;;;14.20;12.35;;;;;;;;;;5011860;28;20275;-65
2023/08/04 05:53:15;;;;;;;16.10;12.98;;;;;;;;;;5016095;28;20260;-65
2023/08/04 05:55:43;;;;;;;13.20;11.88;;;;;;;;;;5015381;28;20790;-65
2023/08/04 05:58:09;;;;;;;16.55;12.68;;;;;;;;;;5013499;28;20755;-65
2023/08/04 06:00:36;;;;;;;16.67;11.77;;;;;;;;;;5015408;28;20203;-65
2023/08/04 06:03:04;;;;;;;13.73;12.23;;;;;;;;;;5015363;28;20572;-65
2023/08/04 06:05:30;;;;;;;14.95;11.65;;;;;;;;;;5010129;28;20215;-65
2023/08/04 06:07:57;;;;;;;12.88;11.27;;;;;;;;;;5018084;28;20632;-65
2023/08/04 06:10:23;;;;;;;13.00;11.73;;;;;;;;;;5013260;28;20236;-65
2023/08/04 06:12:51;;;;;;;12.20;11.07;;;;;;;;;;5010110;28;20677;-65
2023/08/04 06:15:17;;;;;;;15.82;10.95;;;;;;;;;;5025473;28;20227;-66
2023/08/04 06:17:44;;;;;;;11.95;10.55;;;;;;;;;;5026674;28;20297;-65
2023/08/04 06:20:11;;;;;;;12.50;11.50;;;;;;;;;;5025169;28;20227;-65
2023/08/04 06:22:38;;;;;;;11.95;10.88;;;;;;;;;;5024362;28;20292;-66
2023/08/04 06:25:04;;;;;;;11.43;10.50;;;;;;;;;;5024591;28;20239;-65
2023/08/04 06:27:31;;;;;;;11.40;10.55;;;;;;;47.93;nan;94797.91;5027298;28;20271;-65
2023/08/04 06:30:00;;;;;;;10.85;10.05;;;;;;;48.68;nan;94808.63;5025184;28;20203;-66
2023/08/04 06:32:27;;;;;;;11.00;10.05;;;;;;;49.38;nan;94800.31;5024425;28;20661;-65
2023/08/04 06:34:54;;;;;;;10.80;9.80;;;;;;;49.64;nan;94797.88;5025421;28;20304;-65
2023/08/04 06:37:20;;;;;;;11.05;10.05;;;;;;;;;;5026060;28;20199;-66
2023/08/04 06:39:47;;;;;;;12.55;11.65;;;;;;;;;;5026272;28;20705;-66
2023/08/04 06:42:13;;;;;;;16.88;15.52;;;;;;;51.18;nan;94796.59;5022309;28;20195;-67
2023/08/04 06:44:40;;;;;;;13.65;12.50;;;;;;;51.35;nan;94797.47;5023891;28;20742;-65
2023/08/04 06:47:08;;;;;;;15.18;13.00;;;;;;;51.55;nan;94801.47;5023277;28;20203;-66
2023/08/04 06:49:35;;;;;;;12.80;11.73;;;;;;;52.01;nan;94797.44;5021463;28;20357;-66
2023/08/04 06:52:02;;;;;;;12.68;11.55;;;;;;;51.99;nan;94794.25;5023453;28;20802;-66
2023/08/04 06:54:29;;;;;;;12.90;11.48;;;;;;;52.41;nan;94783.72;5021452;28;20551;-66
2023/08/04 06:56:55;;;;;;;19.35;11.60;;;;;;;51.75;nan;94783.84;5009793;28;20238;-66
2023/08/04 06:59:22;;;;;;;12.77;11.45;;;;;;;51.62;nan;94793.72;5010925;28;20203;-65
2023/08/04 07:01:49;;;;;;;14.20;12.75;;;;;;;;;;5015176;28;20207;-66
2023/08/04 07:04:17;;;;;;;13.70;12.60;;;;;;;52.29;nan;94770.81;5011933;28;20227;-66
2023/08/04 07:06:43;;;;;;;22.70;16.00;;;;;;;52.59;nan;94775.19;5009490;28;20784;-65
2023/08/04 07:09:10;;;;;;;28.98;15.15;;;;;;;53.15;nan;94781.44;5017080;28;20239;-68
2023/08/04 07:11:37;;;;;;;18.73;14.93;;;;;;;53.53;nan;94775.94;5020924;28;20246;-68
2023/08/04 07:14:03;;;;;;;20.83;13.77;;;;;;;;;;5021969;28;20302;-68
2023/08/04 07:16:30;;;;;;;15.90;13.93;;;;;;;54.01;nan;94774.66;5019767;28;20219;-68
2023/08/04 07:18:57;;;;;;;13.88;12.07;;;;;;;54.09;nan;94776.53;5023651;28;20726;-68
2023/08/04 07:21:25;;;;;;;10.15;9.35;;;;;;;54.02;nan;94776.25;5025058;28;20199;-68
2023/08/04 07:23:52;;;;;;;15.90;13.88;;;;;;;53.32;nan;94780.56;5024589;28;20635;-67
2023/08/04 07:26:18;;;;;;;18.55;15.23;;;;;;;53.28;nan;94774.19;5024500;28;20208;-67
2023/08/04 07:28:45;;;;;;;15.80;13.63;;;;;;;;;;5024735;28;20273;-67
2023/08/04 07:31:12;;;;;;;10.60;9.68;;;;;;;54.30;nan;94784.69;5024365;28;20206;-68
2023/08/04 07:33:39;;;;;;;10.70;9.68;;;;;;;54.33;nan;94784.81;5022999;28;20211;-67
2023/08/04 07:36:06;;;;;;;11.55;10.40;;;;;;;53.42;nan;94785.63;5012190;28;20238;-67
2023/08/04 07:38:34;;;;;;;10.90;10.20;;;;;;;52.63;nan;94770.75;5013726;28;20223;-66
2023/08/04 07:41:01;;;;;;;11.40;10.32;;;;;;;52.61;nan;94777.63;5013510;28;20282;-67
2023/08/04 07:43:27;;;;;;;11.35;10.30;;;;;;;52.80;nan;94767.16;5012492;28;20708;-67
2023/08/04 07:45:54;;;;;;;9.45;8.57;;;;;;;;;;5012044;28;20265;-67
2023/08/04 07:48:21;;;;;;;9.23;8.48;;;;;;;;;;5022470;28;20207;-67
2023/08/04 07:50:48;;;;;;;9.23;8.60;;;;;;;;;;5023859;28;20294;-67
2023/08/04 07:53:15;;;;;;;11.32;10.50;;;;;;;52.10;nan;94762.19;5018942;28;20226;-66
2023/08/04 07:55:54;;;;;;;9.65;8.95;;;;;;;52.60;nan;94767.88;5008057;28;20267;-67
2023/08/04 07:58:21;;;;;;;11.00;10.15;;;;;;;53.53;nan;94754.22;5008616;28;20202;-68
2023/08/04 08:00:48;;;;;;;9.55;8.27;;;;;;;54.42;nan;94770.31;5007458;28;20273;-68
2023/08/04 08:03:14;;;;;;;9.30;8.20;;;;;;;54.15;nan;94780.63;5010322;28;20227;-64
2023/08/04 08:05:41;;;;;;;10.63;7.97;;;;;;;53.41;nan;94758.78;5010421;28;20202;-66
2023/08/04 08:08:08;;;;;;;8.07;7.57;;;;;;;52.21;nan;94764.25;5009486;28;20204;-66
2023/08/04 08:10:35;;;;;;;8.00;7.40;;;;;;;49.05;nan;94776.09;5008395;28;20713;-65
2023/08/04 08:13:03;;;;;;;8.73;8.13;;;;;;;48.49;nan;94762.00;5008870;28;20203;-66
2023/08/04 08:15:30;;;;;;;7.75;7.35;;;;;;;50.16;nan;94761.31;5006924;28;20223;-66
2023/08/04 08:17:56;;;;;;;9.20;8.07;;;;;;;;;;5006907;28;20211;-67
2023/08/04 08:20:23;;;;;;;8.55;7.95;;;;;;;;;;5010573;28;20196;-66
2023/08/04 08:22:49;;;;;;;8.07;7.68;;;;;;;46.87;nan;94775.78;5010931;28;20200;-67
2023/08/04 08:25:16;;;;;;;7.53;7.05;;;;;;;;;;5007161;28;20255;-67
2023/08/04 08:27:42;;;;;;;8.98;8.38;;;;;;;47.11;nan;94748.88;4998220;28;20274;-66
2023/08/04 08:30:12;;;;;;;7.25;6.68;;;;;;;49.15;nan;94758.09;5007451;28;20353;-68
2023/08/04 08:32:38;;;;;;;8.20;7.80;;;;;;;49.77;nan;94753.03;5022822;28;20238;-67
2023/08/04 08:35:06;;;;;;;7.35;6.75;;;;;;;49.99;nan;94753.09;5023498;28;20316;-67
2023/08/04 08:37:33;;;;;;;7.03;6.57;;;;;;;50.51;nan;94761.53;5024152;28;20199;-66
2023/08/04 08:40:00;;;;;;;7.53;7.05;;;;;;;49.80;nan;94752.41;5022706;28;20227;-67
2023/08/04 08:42:27;;;;;;;8.23;7.63;;;;;;;50.20;nan;94743.38;5022116;28;20196;-68
2023/08/04 08:44:54;;;;;;;8.05;7.53;;;;;;;51.26;nan;94747.91;5021944;28;20584;-68
2023/08/04 08:47:23;;;;;;;7.30;6.82;;;;;;;;;;5020832;28;20604;-67
2023/08/04 08:49:59;;;;;;;8.10;7.55;;;;;;;49.03;nan;94740.50;5022302;28;20734;-67
2023/08/04 08:52:30;;;;;;;9.55;7.22;;;;;;;48.11;nan;94751.28;5022594;28;20226;-67
2023/08/04 08:54:58;;;;;;;8.30;7.68;;;;;;;47.69;nan;94744.91;5023882;28;20223;-67
2023/08/04 08:57:26;;;;;;;7.95;7.30;;;;;;;49.11;nan;94746.31;5023533;28;20219;-67
2023/08/04 08:59:52;;;;;;;7.50;6.93;;;;;;;50.07;nan;94741.53;5026261;28;20269;-67
2023/08/04 09:02:19;;;;;;;7.13;6.68;;;;;;;50.41;nan;94723.94;5028236;28;20203;-68
2023/08/04 09:04:47;;;;;;;8.93;8.20;;;;;;;50.07;nan;94725.31;5029081;28;20296;-67
2023/08/04 09:07:14;;;;;;;6.68;6.38;;;;;;;50.09;nan;94719.59;5028128;28;20676;-67
2023/08/04 09:09:41;;;;;;;7.85;7.30;;;;;;;50.58;nan;94716.72;5028289;28;20211;-67
2023/08/04 09:12:08;;;;;;;12.02;7.80;;;;;;;50.47;nan;94718.09;5027726;28;20234;-66
2023/08/04 09:14:48;;;;;;;7.88;7.47;;;;;;;49.31;nan;94686.50;5029053;28;20234;-66
2023/08/04 09:17:28;;;;;;;8.48;7.88;;;;;;;;;;5028173;28;20231;-67
2023/08/04 09:19:56;;;;;;;8.35;7.95;;;;;;;48.03;nan;94706.94;5028422;28;20191;-66
2023/08/04 09:22:24;;;;;;;36.92;33.42;;;;;;;46.91;nan;94702.28;5027802;28;20203;-69
2023/08/04 09:24:54;;;;;;;10.10;9.18;;;;;;;45.95;nan;94708.59;5028066;28;20260;-65
2023/08/04 09:27:34;;;;;;;10.05;9.32;;;;;;;45.28;nan;94677.88;5027284;28;20235;-62
2023/08/04 09:30:02;;;;;;;9.07;8.48;;;;;;;44.90;nan;94700.81;5027388;28;20314;-64
2023/08/04 09:32:30;;;;;;;11.70;10.82;;;;;;;43.29;nan;94703.25;5027873;28;20678;-65
2023/08/04 09:35:06;;;;;;;9.73;9.15;;;;;;;41.51;nan;94703.91;5026524;28;20684;-64
2023/08/04 09:37:34;;;;;;;10.27;9.57;;;;;;;40.63;nan;94709.22;5024923;28;20211;-65
2023/08/04 09:40:02;;;;;;;41.15;37.20;;;;;;;;;;5028549;28;20203;-64
2023/08/04 09:42:29;;;;;;;33.05;29.67;;;;;;;40.48;nan;94689.56;5029525;28;20295;-64
2023/08/04 09:44:56;;;;;;;16.60;14.95;;;;;;;40.57;nan;94698.75;5028138;28;20293;-65
2023/08/04 09:47:24;;;;;;;10.07;9.25;;;;;;;39.50;nan;94698.91;5028131;28;20230;-65
2023/08/04 09:49:50;;;;;;;9.77;9.10;;;;;;;;;;5028034;28;20195;-66
2023/08/04 09:52:23;;;;;;;10.55;9.15;;;;;;;37.31;nan;94696.63;5025714;28;20312;-66
2023/08/04 09:54:53;;;;;;;13.98;12.85;;;;;;;36.82;nan;94668.53;5028888;28;20200;-66
2023/08/04 09:57:22;;;;;;;10.25;9.45;;;;;;;36.42;nan;94691.94;5027001;28;20219;-66
2023/08/04 09:59:49;;;;;;;10.10;9.15;;;;;;;35.98;nan;94692.97;5028539;28;20207;-65
2023/08/04 10:02:18;;;;;;;9.40;8.68;;;;;;;35.65;nan;94686.06;5027307;28;20294;-64
2023/08/04 10:04:49;;;;;;;10.27;9.50;;;;;;;35.31;nan;94694.44;5031218;28;20314;-62
2023/08/04 10:07:17;;;;;;;9.90;9.30;;;;;;;35.34;nan;94696.66;5026608;28;20211;-66
2023/08/04 10:09:47;;;;;;;9.55;8.85;;;;;;;35.17;nan;94693.66;5026717;28;20206;-66
2023/08/04 10:12:15;;;;;;;9.70;9.10;;;;;;;35.41;nan;94678.91;5027612;28;20199;-64
2023/08/04 10:14:42;;;;;;;9.07;8.57;;;;;;;35.55;nan;94685.75;5033056;28;20273;-65
2023/08/04 10:17:09;;;;;;;9.88;9.07;;;;;;;35.60;nan;94679.81;5030112;28;20640;-64
2023/08/04 10:19:37;;;;;;;9.80;9.10;;;;;;;35.63;nan;94672.28;5027407;28;20299;-64
2023/08/04 10:22:06;;;;;;;10.30;9.48;;;;;;;35.88;nan;94668.88;5027632;28;20282;-65
2023/08/04 10:24:36;;;;;;;8.13;7.53;;;;;;;35.97;nan;94672.84;5024492;28;20335;-66
2023/08/04 10:27:14;;;;;;;11.75;8.65;;;;;;;;;;5023766;28;20593;-65
2023/08/04 10:29:41;;;;;;;9.23;8.70;;;;;;;;;;5029635;28;20238;-65
2023/08/04 10:32:09;;;;;;;8.65;8.05;;;;;;;;;;5021714;28;20231;-64
2023/08/04 10:34:36;;;;;;;8.95;8.15;;;;;;;;;;5029483;28;20203;-64
2023/08/04 10:37:06;;;;;;;8.35;7.95;;;;;;;35.26;nan;94665.19;5028446;28;20713;-64
2023/08/04 10:39:34;;;;;;;9.10;8.27;;;;;;;;;;5029285;28;20571;-64
2023/08/04 10:42:04;;;;;;;9.52;9.00;;;;;;;36.09;nan;94658.69;5025400;28;20200;-64
2023/08/04 10:44:48;;;;;;;9.15;8.52;;;;;;;36.34;nan;94674.53;5027431;28;20283;-65
2023/08/04 10:47:15;;;;;;;8.80;8.30;;;;;;;36.05;nan;94667.28;5026626;28;20192;-64
2023/08/04 10:49:42;;;;;;;8.73;8.05;;;;;;;;;;5027148;28;20234;-63
2023/08/04 10:52:09;;;;;;;8.88;8.27;;;;;;;;;;5028411;28;20909;-64
2023/08/04 10:54:35;;;;;;;7.80;7.20;;;;;;;;;;5028185;28;20203;-65
2023/08/04 10:57:02;;;;;;;8.93;8.23;;;;;;;35.50;nan;94648.59;5028432;28;20227;-66
2023/08/04 10:59:31;;;;;;;8.93;8.20;;;;;;;35.63;nan;94671.47;5027914;28;20211;-65
2023/08/04 11:01:58;;;;;;;13.00;7.57;;;;;;;;;;5027804;28;20584;-65
2023/08/04 11:04:24;;;;;;;9.18;8.35;;;;;;;;;;5028553;28;20234;-65
2023/08/04 11:06:51;;;;;;;9.20;8.43;;;;;;;;;;5028243;28;20207;-65
2023/08/04 11:09:17;;;;;;;9.35;8.45;;;;;;;;;;5028587;28;20199;-65
2023/08/04 11:11:44;;;;;;;9.05;8.55;;;;;;;;;;5028465;28;20235;-65
2023/08/04 11:14:10;;;;;;;9.35;8.40;;;;;;;;;;5028722;28;20200;-66
2023/08/04 11:16:38;;;;;;;9.75;9.02;;;;;;;;;;5028720;28;20258;-65
2023/08/04 11:19:07;;;;;;;8.35;7.75;;;;;;;;;;5028800;28;20200;-66
2023/08/04 11:21:33;;;;;;;9.10;8.55;;;;;;;;;;5029767;28;20589;-65
2023/08/04 11:24:00;;;;;;;8.73;8.07;;;;;;;35.09;nan;94633.19;5029825;28;20195;-66
2023/08/04 11:26:28;;;;;;;8.80;8.18;;;;;;;;;;5030219;28;20231;-65
2023/08/04 11:28:56;;;;;;;8.02;7.53;;;;;;;;;;5030751;28;20261;-65
2023/08/04 11:31:22;;;;;;;15.57;8.00;;;;;;;;;;5028889;28;20211;-65
2023/08/04 11:33:51;;;;;;;8.35;7.72;;;;;;;;;;5031002;28;20273;-65
2023/08/04 11:36:18;;;;;;;9.32;7.47;;;;;;;;;;5030446;28;20713;-66
2023/08/04 11:38:44;;;;;;;7.72;7.20;;;;;;;;;;5032513;28;20230;-67
2023/08/04 11:41:12;;;;;;;9.48;8.57;;;;;;;;;;5030238;28;20207;-66
2023/08/04 11:43:39;;;;;;;9.38;8.73;;;;;;;;;;5023610;28;20341;-66
2023/08/04 11:46:07;;;;;;;8.30;7.80;;;;;;;;;;5037038;28;20226;-65
2023/08/04 11:48:34;;;;;;;10.27;8.10;;;;;;;;;;5031835;28;20200;-66
2023/08/04 11:51:02;;;;;;;8.30;7.80;;;;;;;34.43;nan;94618.44;5030818;28;20203;-65
2023/08/04 11:53:29;;;;;;;8.38;7.68;;;;;;;;;;5030273;28;20690;-65
2023/08/04 11:55:56;;;;;;;8.45;7.97;;;;;;;;;;5029680;28;20238;-65
2023/08/04 11:58:29;;;;;;;8.15;7.63;;;;;;;;;;5029957;28;20287;-66
2023/08/04 12:00:55;;;;;;;8.40;7.90;;;;;;;;;;5029875;28;20204;-67
2023/08/04 12:03:22;;;;;;;7.90;7.45;;;;;;;;;;5029981;28;20819;-66
2023/08/04 12:05:48;;;;;;;7.30;6.90;;;;;;;;;;5030021;28;20191;-65
2023/08/04 12:08:17;;;;;;;7.32;6.72;;;;;;;34.58;nan;94598.91;5030093;28;20203;-65
2023/08/04 12:10:44;;;;;;;7.80;7.00;;;;;;;;;;5030325;28;20262;-66
2023/08/04 12:13:25;;;;;;;8.43;7.75;;;;;;;;;;5040340;28;20679;-66
2023/08/04 12:15:51;;;;;;;7.82;7.28;;;;;;;;;;5029999;28;20228;-65
2023/08/04 12:18:24;;;;;;;6.70;6.10;;;;;;;;;;5042423;28;20257;-64
2023/08/04 12:20:51;;;;;;;7.38;6.97;;;;;;;;;;5020326;28;20290;-65
2023/08/04 12:23:18;;;;;;;7.78;7.00;;;;;;;;;;5029797;28;20204;-66
2023/08/04 12:25:45;;;;;;;7.72;7.28;;;;;;;34.65;nan;94589.09;5030084;28;20682;-66
2023/08/04 12:28:12;;;;;;;7.25;6.57;;;;;;;;;;5029698;28;20199;-65
2023/08/04 12:30:38;;;;;;;8.23;6.97;;;;;;;34.88;nan;94584.16;5029620;28;20227;-64
2023/08/04 12:33:05;;;;;;;8.20;7.28;;;;;;;;;;5032770;28;20204;-65
2023/08/04 12:35:31;;;;;;;8.07;7.57;;;;;;;;;;5034009;28;20207;-66
2023/08/04 12:37:59;;;;;;;7.40;6.80;;;;;;;;;;5033279;28;20238;-64
2023/08/04 12:40:27;;;;;;;7.68;7.18;;;;;;;;;;5033874;28;20204;-65
2023/08/04 12:42:54;;;;;;;7.28;6.80;;;;;;;;;;5032752;28;20203;-66
2023/08/04 12:45:20;;;;;;;8.23;7.55;;;;;;;35.81;nan;94572.91;5033272;28;20200;-65
2023/08/04 12:47:47;;;;;;;6.85;6.53;;;;;;;35.91;nan;94554.69;5032575;28;20200;-64
2023/08/04 12:50:14;;;;;;;8.10;7.43;;;;;;;36.00;nan;94556.03;5033712;28;20254;-65
2023/08/04 12:52:40;;;;;;;7.75;7.10;;;;;;;;;;5032816;28;20259;-65
2023/08/04 12:55:07;;;;;;;7.95;7.25;;;;;;;;;;5033496;28;20208;-67
2023/08/04 12:57:35;;;;;;;8.15;7.55;;;;;;;;;;5033074;28;20277;-65
2023/08/04 13:00:01;;;;;;;8.07;7.28;;;;;;;;;;5033234;28;20211;-65
2023/08/04 13:02:28;;;;;;;7.63;7.03;;;;;;;35.40;nan;94561.03;5032562;28;20306;-67
2023/08/04 13:04:55;;;;;;;8.80;7.95;;;;;;;35.33;nan;94553.19;5032995;28;20305;-65
2023/08/04 13:07:21;;;;;;;7.47;7.07;;;;;;;35.28;nan;94547.75;5032558;28;20677;-66
2023/08/04 13:09:48;;;;;;;7.78;7.38;;;;;;;35.32;nan;94543.66;5033308;28;20273;-65
2023/08/04 13:12:15;;;;;;;8.10;7.50;;;;;;;35.36;nan;94549.31;5032486;28;20528;-64
2023/08/04 13:14:43;;;;;;;8.95;8.35;;;;;;;35.25;nan;94537.56;5033284;28;20204;-65
2023/08/04 13:17:09;;;;;;;7.97;7.47;;;;;;;;;;5032218;28;20219;-65
2023/08/04 13:19:36;;;;;;;8.48;7.97;;;;;;;;;;5032951;28;20257;-64
2023/08/04 13:22:03;;;;;;;8.07;7.53;;;;;;;;;;5032159;28;20207;-65
2023/08/04 13:24:30;;;;;;;8.57;7.97;;;;;;;;;;5032473;28;20711;-65
2023/08/04 13:26:56;;;;;;;8.02;7.57;;;;;;;35.02;nan;94542.63;5032463;28;20253;-65